Time;durP1;ratioP1;P1;durP2;ratioP2;P2;SDS_P1;SDS_P2;PMS_P1;PMS_P2;Temp;Humidity;BMP_temperature;BMP_pressure;BME280_temperature;BME280_humidity;BME280_pressure;Samples;Min_cycle;Max_cycle;Signal;HPM_P1;HPM_P2
2023/08/27 08:07:34;;;;;;;;;2.33;1.00;;;;;;;;5291462;22;45715;-84
2023/08/27 08:09:59;;;;;;;;;0.00;0.00;;;;;;;;4994237;28;45723;-83
2023/08/27 08:12:24;;;;;;;;;1.00;1.00;;;;;;;;4990001;28;45472;-79
2023/08/27 08:14:50;;;;;;;;;1.00;1.00;;;;;;;;4989520;28;45469;-77
2023/08/27 08:17:15;;;;;;;;;0.67;0.67;;;;;;;;4992303;28;45297;-79
2023/08/27 08:19:40;;;;;;;;;4.00;1.33;;;;;;;;4999382;28;45381;-78
2023/08/27 08:22:05;;;;;;;;;1.00;1.00;;;;;;;;4992728;28;45314;-79
2023/08/27 08:24:30;;;;;;;;;1.67;1.67;;;;;;;;4995330;28;45756;-80
2023/08/27 08:26:56;;;;;;;;;3.00;1.00;;;;;;;;4993246;28;45446;-81
2023/08/27 08:29:22;;;;;;;;;2.00;1.00;;;;;;;;4999423;28;45418;-81
2023/08/27 08:31:47;;;;;;;;;1.00;1.00;;;;;;;;4991414;28;45360;-81
2023/08/27 08:34:13;;;;;;;;;1.00;1.00;;;;;;;;4994581;28;46676;-82
2023/08/27 08:36:38;;;;;;;;;3.00;1.00;;;;;;;;4996047;28;45359;-82
2023/08/27 08:39:03;;;;;;;;;1.33;1.33;;;;;;;;4999343;28;45233;-76
2023/08/27 08:41:29;;;;;;;;;1.25;1.00;;;;;;;;4999943;28;46209;-84
2023/08/27 08:44:17;;;;;;;;;1.00;1.00;;;;;;;;5000130;28;45291;-76
2023/08/27 08:46:43;;;;;;;;;1.00;0.75;;;;;;;;4986756;28;45548;-76
2023/08/27 08:49:12;;;;;;;;;0.75;0.75;;;;;;;;5000776;28;45451;-82
2023/08/27 08:51:38;;;;;;;;;1.25;0.00;;;;;;;;4997776;28;45438;-80
2023/08/27 08:54:04;;;;;;;;;1.50;1.00;;;;;;;;5001624;28;45851;-78
2023/08/27 08:56:34;;;;;;;;;1.00;1.00;;;;;;;;4999621;28;45469;-85
2023/08/27 08:59:00;;;;;;;;;0.25;0.00;;;;;;;;4994793;28;45329;-81
2023/08/27 09:01:28;;;;;;;;;2.00;0.00;;;;;;;;5000100;28;45300;-86
2023/08/27 09:03:54;;;;;;;;;0.00;0.00;;;;;;;;5000890;28;47467;-82
2023/08/27 09:06:19;;;;;;;;;1.50;1.00;;;;;;;;4997036;28;44925;-80
2023/08/27 09:08:45;;;;;;;;;0.25;0.25;;;;;;;;4995761;28;45556;-77
2023/08/27 09:11:11;;;;;;;;;0.00;0.00;;;;;;;;4990876;28;45441;-77
2023/08/27 09:13:37;;;;;;;;;2.25;0.00;;;;;;;;4990250;28;45449;-81
2023/08/27 09:16:02;;;;;;;;;0.25;0.25;;;;;;;;4996840;28;45710;-79
2023/08/27 09:18:27;;;;;;;;;1.00;1.00;;;;;;;;4993296;28;45328;-77
2023/08/27 09:20:53;;;;;;;;;2.50;1.00;;;;;;;;4991928;28;45253;-77
2023/08/27 09:23:18;;;;;;;;;1.50;1.00;;;;;;;;4990422;28;46411;-78
2023/08/27 09:25:44;;;;;;;;;1.25;0.25;;;;;;;;4998314;28;45314;-78
2023/08/27 09:28:10;;;;;;;;;1.25;1.25;;;;;;;;4990200;28;45364;-78
2023/08/27 09:30:36;;;;;;;;;2.00;1.00;;;;;;;;4994918;28;45336;-81
2023/08/27 09:33:03;;;;;;;;;1.00;1.00;;;;;;;;4992607;28;45731;-77
2023/08/27 09:35:40;;;;;;;;;1.25;1.25;;;;;;;;4995237;28;45485;-76
2023/08/27 09:38:06;;;;;;;;;1.00;1.00;;;;;;;;4994142;28;45403;-78
2023/08/27 09:40:32;;;;;;;;;1.25;1.25;;;;;;;;4995542;28;45266;-76
2023/08/27 09:43:07;;;;;;;;;1.00;1.00;;;;;;;;4991990;28;46152;-77
2023/08/27 09:45:33;;;;;;;;;2.00;1.25;;;;;;;;4993369;28;45276;-78
2023/08/27 09:47:58;;;;;;;;;3.50;1.50;;;;;;;;4991944;28;45318;-77
2023/08/27 09:50:24;;;;;;;;;6.25;4.00;;;;;;;;4992087;28;45557;-76
2023/08/27 09:52:49;;;;;;;;;3.00;3.00;;;;;;;;4988702;28;45666;-76
2023/08/27 09:55:15;;;;;;;;;1.50;1.00;;;;;;;;5023196;28;45340;-76
2023/08/27 09:57:47;;;;;;;;;2.25;1.75;;;;;;;;4988537;28;45239;-76
2023/08/27 10:00:12;;;;;;;;;1.50;1.50;;;;;;;;4987917;28;45687;-76
2023/08/27 10:02:37;;;;;;;;;3.50;1.00;;;;;;;;4988956;28;45333;-79
2023/08/27 10:05:08;;;;;;;;;2.25;1.00;;;;;;;;4988914;28;45427;-78
2023/08/27 10:07:33;;;;;;;;;0.75;0.75;;;;;;;;4993491;28;45395;-78
2023/08/27 10:09:59;;;;;;;;;2.50;2.50;;;;;;;;4994697;28;45217;-77
2023/08/27 10:12:24;;;;;;;;;1.00;1.00;;;;;;;;4995567;28;46729;-79
2023/08/27 10:14:50;;;;;;;;;1.00;1.00;;;;;;;;4999439;28;45328;-77
2023/08/27 10:17:15;;;;;;;;;2.50;2.00;;;;;;;;4996616;28;45323;-76
2023/08/27 10:19:41;;;;;;;;;1.25;1.00;;;;;;;;4997335;28;47088;-80
2023/08/27 10:22:06;;;;;;;;;1.00;1.00;;;;;;;;4992179;28;45451;-76
2023/08/27 10:24:32;;;;;;;;;1.00;1.00;;;;;;;;4984603;28;45433;-81
2023/08/27 10:26:58;;;;;;;;;1.00;1.00;;;;;;;;4984113;28;45457;-80
2023/08/27 10:29:26;;;;;;;;;2.25;1.00;;;;;;;;4989038;28;45299;-78
2023/08/27 10:31:52;;;;;;;;;2.00;2.00;;;;;;;;4991867;28;45922;-80
2023/08/27 10:34:17;;;;;;;;;0.50;0.25;;;;;;;;4990422;28;45283;-80
2023/08/27 10:36:44;;;;;;;;;1.75;1.75;;;;;;;;4991285;28;45325;-79
2023/08/27 10:39:09;;;;;;;;;1.00;1.00;;;;;;;;4997269;28;45507;-80
2023/08/27 10:41:35;;;;;;;;;1.00;1.00;;;;;;;;4996243;28;46962;-79
2023/08/27 10:44:01;;;;;;;;;2.00;2.00;;;;;;;;4996097;28;45375;-80
2023/08/27 10:46:26;;;;;;;;;2.50;1.25;;;;;;;;4995390;28;45722;-80
2023/08/27 10:48:52;;;;;;;;;1.00;1.00;;;;;;;;4988915;28;45346;-80
2023/08/27 10:51:18;;;;;;;;;1.00;1.00;;;;;;;;4996065;28;45652;-80
2023/08/27 10:53:49;;;;;;;;;2.00;0.75;;;;;;;;4996370;28;45340;-78
2023/08/27 10:56:32;;;;;;;;;2.00;0.75;;;;;;;;4996948;28;45328;-78
2023/08/27 10:59:02;;;;;;;;;1.00;1.00;;;;;;;;4999580;28;45198;-77
2023/08/27 11:01:28;;;;;;;;;0.20;0.20;;;;;;;;4998362;28;45408;-81
2023/08/27 11:03:57;;;;;;;;;0.25;0.00;;;;;;;;4999878;28;45419;-78
2023/08/27 11:06:35;;;;;;;;;1.50;0.25;;;;;;;;4993947;28;45301;-77
2023/08/27 11:09:00;;;;;;;;;0.00;0.00;;;;;;;;4989945;28;45560;-81
2023/08/27 11:11:26;;;;;;;;;1.25;1.00;;;;;;;;4994462;28;46182;-80
2023/08/27 11:14:02;;;;;;;;;1.00;1.00;;;;;;;;4998213;28;45537;-80
2023/08/27 11:16:29;;;;;;;;;0.00;0.00;;;;;;;;5025747;28;45343;-81
2023/08/27 11:18:54;;;;;;;;;0.00;0.00;;;;;;;;4998562;28;45807;-81
2023/08/27 11:21:21;;;;;;;;;1.00;1.00;;;;;;;;4997641;28;45518;-79
2023/08/27 11:24:06;;;;;;;;;2.50;1.00;;;;;;;;4990993;28;45300;-77
2023/08/27 11:26:31;;;;;;;;;2.25;1.50;;;;;;;;4997893;28;45507;-82
2023/08/27 11:28:57;;;;;;;;;2.00;1.00;;;;;;;;4995231;28;45477;-78
2023/08/27 11:31:22;;;;;;;;;2.00;2.00;;;;;;;;4998017;28;45273;-76
2023/08/27 11:33:48;;;;;;;;;0.25;0.25;;;;;;;;4998338;28;45261;-77
2023/08/27 11:36:13;;;;;;;;;3.00;1.50;;;;;;;;4996999;28;45307;-81
2023/08/27 11:38:38;;;;;;;;;1.00;1.00;;;;;;;;4993040;28;45240;-79
2023/08/27 11:41:04;;;;;;;;;1.75;1.75;;;;;;;;4996620;28;45604;-78
2023/08/27 11:43:29;;;;;;;;;1.00;1.00;;;;;;;;4995384;28;45163;-78
2023/08/27 11:45:54;;;;;;;;;1.00;1.00;;;;;;;;4996733;28;45401;-81
2023/08/27 11:48:19;;;;;;;;;1.50;1.50;;;;;;;;4998080;28;45328;-83
2023/08/27 11:50:45;;;;;;;;;1.25;1.25;;;;;;;;4996696;28;47109;-76
2023/08/27 11:53:11;;;;;;;;;0.50;0.50;;;;;;;;5007871;28;45384;-81
2023/08/27 11:55:36;;;;;;;;;0.00;0.00;;;;;;;;4997707;28;45704;-79
2023/08/27 11:58:02;;;;;;;;;1.00;1.00;;;;;;;;4996263;28;47097;-77
2023/08/27 12:00:29;;;;;;;;;1.00;1.00;;;;;;;;4998201;28;46896;-83
2023/08/27 12:02:55;;;;;;;;;3.00;2.25;;;;;;;;4995505;28;45307;-78
2023/08/27 12:05:20;;;;;;;;;6.00;4.50;;;;;;;;4999664;28;45486;-79
2023/08/27 12:07:46;;;;;;;;;4.75;3.00;;;;;;;;4995756;28;45392;-81
2023/08/27 12:10:13;;;;;;;;;3.00;3.00;;;;;;;;4997222;28;45506;-78
2023/08/27 12:12:39;;;;;;;;;1.00;1.00;;;;;;;;4985349;28;46293;-82
2023/08/27 12:15:04;;;;;;;;;0.00;0.00;;;;;;;;4997675;28;45291;-80
2023/08/27 12:17:33;;;;;;;;;3.00;1.00;;;;;;;;4989660;28;45377;-79
2023/08/27 12:19:58;;;;;;;;;2.00;0.80;;;;;;;;4990462;28;45516;-80
2023/08/27 12:22:23;;;;;;;;;2.25;1.00;;;;;;;;4986659;28;45234;-80
2023/08/27 12:24:49;;;;;;;;;2.00;0.50;;;;;;;;4989234;28;45605;-78
2023/08/27 12:27:19;;;;;;;;;0.00;0.00;;;;;;;;4987343;28;45406;-77
2023/08/27 12:29:45;;;;;;;;;2.00;1.00;;;;;;;;4995638;28;45444;-77
2023/08/27 12:32:10;;;;;;;;;1.75;0.00;;;;;;;;4990271;28;45166;-77
2023/08/27 12:34:36;;;;;;;;;3.25;0.00;;;;;;;;4995056;28;45449;-79
2023/08/27 12:37:02;;;;;;;;;0.00;0.00;;;;;;;;4989071;28;45467;-77
2023/08/27 12:39:28;;;;;;;;;0.00;0.00;;;;;;;;4994679;28;45382;-78
2023/08/27 12:41:53;;;;;;;;;0.75;0.00;;;;;;;;4986858;28;45527;-78
2023/08/27 12:44:18;;;;;;;;;0.50;0.50;;;;;;;;4994365;28;45389;-77
2023/08/27 12:46:43;;;;;;;;;2.50;0.00;;;;;;;;4986316;28;47407;-78
2023/08/27 12:49:09;;;;;;;;;0.00;0.00;;;;;;;;5024439;28;46849;-75
2023/08/27 12:51:34;;;;;;;;;1.00;1.00;;;;;;;;4987936;28;45455;-76
2023/08/27 12:53:59;;;;;;;;;1.00;1.00;;;;;;;;4992768;28;45404;-77
2023/08/27 12:56:25;;;;;;;;;1.00;1.00;;;;;;;;4988161;28;45344;-77
2023/08/27 12:58:50;;;;;;;;;1.50;0.75;;;;;;;;5023753;28;46240;-76
2023/08/27 13:01:15;;;;;;;;;0.00;0.00;;;;;;;;5018840;28;45513;-76
2023/08/27 13:03:40;;;;;;;;;0.50;0.50;;;;;;;;4993603;28;45281;-77
2023/08/27 13:06:06;;;;;;;;;0.25;0.25;;;;;;;;4991968;28;45548;-78
2023/08/27 13:08:31;;;;;;;;;2.25;0.00;;;;;;;;5024389;28;46897;-77
2023/08/27 13:10:57;;;;;;;;;1.75;0.75;;;;;;;;4991785;28;45458;-79
2023/08/27 13:13:22;;;;;;;;;0.00;0.00;;;;;;;;4993471;28;45377;-78
2023/08/27 13:15:47;;;;;;;;;0.00;0.00;;;;;;;;4992578;28;45734;-79
2023/08/27 13:18:13;;;;;;;;;1.00;1.00;;;;;;;;4980770;28;45393;-77
2023/08/27 13:20:38;;;;;;;;;0.75;0.75;;;;;;;;4979669;28;45154;-80
2023/08/27 13:23:03;;;;;;;;;1.75;0.25;;;;;;;;4992468;28;45210;-84
2023/08/27 13:25:28;;;;;;;;;0.75;0.00;;;;;;;;4996085;28;46210;-81
2023/08/27 13:27:55;;;;;;;;;0.00;0.00;;;;;;;;4992735;28;46479;-83
2023/08/27 13:30:22;;;;;;;;;0.80;0.80;;;;;;;;4998918;28;45422;-83
2023/08/27 13:32:47;;;;;;;;;0.00;0.00;;;;;;;;4996364;28;45293;-85
2023/08/27 13:35:13;;;;;;;;;1.00;1.00;;;;;;;;5000300;28;45334;-81
2023/08/27 13:37:38;;;;;;;;;2.00;0.25;;;;;;;;4994329;28;45470;-74
2023/08/27 13:40:03;;;;;;;;;0.75;0.25;;;;;;;;5000860;28;45287;-73
2023/08/27 13:42:28;;;;;;;;;0.00;0.00;;;;;;;;4995314;28;45246;-73
2023/08/27 13:44:54;;;;;;;;;0.00;0.00;;;;;;;;5001391;28;45327;-73
2023/08/27 13:47:19;;;;;;;;;1.00;0.00;;;;;;;;4992841;28;45614;-73
2023/08/27 13:49:44;;;;;;;;;0.25;0.25;;;;;;;;5001403;28;45268;-73
2023/08/27 13:52:09;;;;;;;;;0.00;0.00;;;;;;;;4995808;28;47263;-73
2023/08/27 13:54:34;;;;;;;;;0.75;0.75;;;;;;;;5001237;28;45320;-73
2023/08/27 13:56:59;;;;;;;;;0.50;0.50;;;;;;;;4998054;28;46390;-73
2023/08/27 13:59:26;;;;;;;;;0.00;0.00;;;;;;;;4999694;28;45326;-74
2023/08/27 14:01:51;;;;;;;;;0.75;0.75;;;;;;;;4999109;28;45514;-73
2023/08/27 14:04:16;;;;;;;;;2.25;1.00;;;;;;;;5000978;28;45252;-73
2023/08/27 14:06:42;;;;;;;;;1.00;1.00;;;;;;;;4996097;28;46747;-74
2023/08/27 14:09:07;;;;;;;;;1.00;1.00;;;;;;;;4997413;28;45210;-73
2023/08/27 14:11:34;;;;;;;;;0.25;0.25;;;;;;;;4995791;28;45561;-73
2023/08/27 14:13:59;;;;;;;;;0.00;0.00;;;;;;;;4999349;28;45305;-73
2023/08/27 14:16:24;;;;;;;;;0.00;0.00;;;;;;;;4998051;28;46620;-73
2023/08/27 14:18:50;;;;;;;;;1.75;0.25;;;;;;;;5000110;28;45398;-73
2023/08/27 14:21:16;;;;;;;;;1.00;1.00;;;;;;;;4999037;28;45188;-74
2023/08/27 14:23:41;;;;;;;;;0.00;0.00;;;;;;;;5000017;28;45384;-73
2023/08/27 14:26:06;;;;;;;;;0.75;0.25;;;;;;;;4998874;28;45403;-73
2023/08/27 14:28:31;;;;;;;;;0.25;0.25;;;;;;;;4997345;28;45398;-73
2023/08/27 14:30:57;;;;;;;;;0.50;0.50;;;;;;;;4999526;28;45465;-73
2023/08/27 14:33:22;;;;;;;;;0.25;0.25;;;;;;;;4995737;28;45508;-73
2023/08/27 14:35:47;;;;;;;;;1.75;0.00;;;;;;;;4999507;28;45461;-73
2023/08/27 14:38:12;;;;;;;;;0.00;0.00;;;;;;;;4997163;28;45810;-73
2023/08/27 14:40:37;;;;;;;;;1.00;1.00;;;;;;;;4999952;28;45609;-73
2023/08/27 14:43:03;;;;;;;;;0.50;0.00;;;;;;;;4995083;28;45403;-73
2023/08/27 14:45:28;;;;;;;;;0.00;0.00;;;;;;;;5031927;28;47181;-74
2023/08/27 14:47:53;;;;;;;;;0.00;0.00;;;;;;;;4991423;28;45427;-73
2023/08/27 14:50:18;;;;;;;;;0.00;0.00;;;;;;;;4990975;28;45318;-73
2023/08/27 14:52:44;;;;;;;;;0.25;0.25;;;;;;;;4993342;28;45607;-73
2023/08/27 14:55:09;;;;;;;;;1.00;1.00;;;;;;;;4994278;28;45626;-73
2023/08/27 14:57:34;;;;;;;;;1.50;0.50;;;;;;;;4994107;28;45454;-74
2023/08/27 15:00:00;;;;;;;;;0.00;0.00;;;;;;;;4994914;28;45559;-73
2023/08/27 15:02:25;;;;;;;;;0.00;0.00;;;;;;;;4993895;28;45300;-73
2023/08/27 15:04:50;;;;;;;;;0.00;0.00;;;;;;;;4995952;28;45572;-72
2023/08/27 15:07:16;;;;;;;;;0.00;0.00;;;;;;;;4994785;28;45390;-73
2023/08/27 15:09:42;;;;;;;;;0.00;0.00;;;;;;;;4998152;28;45426;-74
2023/08/27 15:12:15;;;;;;;;;1.00;1.00;;;;;;;;4993391;28;45512;-73
2023/08/27 15:14:40;;;;;;;;;0.00;0.00;;;;;;;;5010134;28;46612;-73
2023/08/27 15:17:06;;;;;;;;;1.25;0.00;;;;;;;;4994421;28;45406;-73
2023/08/27 15:19:31;;;;;;;;;0.00;0.00;;;;;;;;4995041;28;45201;-73
2023/08/27 15:21:56;;;;;;;;;0.00;0.00;;;;;;;;4993932;28;46049;-74
2023/08/27 15:24:22;;;;;;;;;0.00;0.00;;;;;;;;4994673;28;45380;-73
2023/08/27 15:26:47;;;;;;;;;0.00;0.00;;;;;;;;4995271;28;45248;-74
2023/08/27 15:29:12;;;;;;;;;0.00;0.00;;;;;;;;4994876;28;45435;-73
2023/08/27 15:31:37;;;;;;;;;0.50;0.50;;;;;;;;4996707;28;45512;-73
2023/08/27 15:34:10;;;;;;;;;1.00;1.00;;;;;;;;4994463;28;45546;-74
2023/08/27 15:36:35;;;;;;;;;1.00;1.00;;;;;;;;4991389;28;45669;-74
2023/08/27 15:39:01;;;;;;;;;1.00;1.00;;;;;;;;4986252;28;45292;-76
2023/08/27 15:41:28;;;;;;;;;1.00;1.00;;;;;;;;4995284;28;45288;-77
2023/08/27 15:43:55;;;;;;;;;0.50;0.50;;;;;;;;4986853;28;46274;-76
2023/08/27 15:46:20;;;;;;;;;1.00;1.00;;;;;;;;4993217;28;45227;-76
2023/08/27 15:48:45;;;;;;;;;0.00;0.00;;;;;;;;4990334;28;45379;-76
2023/08/27 15:51:10;;;;;;;;;2.00;0.00;;;;;;;;4995367;28;45646;-75
2023/08/27 15:53:36;;;;;;;;;1.00;1.00;;;;;;;;4993241;28;45699;-76
2023/08/27 15:56:01;;;;;;;;;2.00;1.00;;;;;;;;4997753;28;45337;-75
2023/08/27 15:58:26;;;;;;;;;0.00;0.00;;;;;;;;4993325;28;45365;-76
2023/08/27 16:00:51;;;;;;;;;1.33;1.33;;;;;;;;4997678;28;45331;-74
2023/08/27 16:03:17;;;;;;;;;1.50;1.50;;;;;;;;4992688;28;46438;-74
2023/08/27 16:05:42;;;;;;;;;2.00;0.33;;;;;;;;4998636;28;45237;-74
2023/08/27 16:08:08;;;;;;;;;1.00;1.00;;;;;;;;4995491;28;45440;-73
2023/08/27 16:10:39;;;;;;;;;3.33;1.33;;;;;;;;4999030;28;45439;-73
2023/08/27 16:13:05;;;;;;;;;0.67;0.67;;;;;;;;4993584;28;47267;-73
2023/08/27 16:15:30;;;;;;;;;1.67;0.00;;;;;;;;4998940;28;45383;-74
2023/08/27 16:17:55;;;;;;;;;0.67;0.00;;;;;;;;4988567;28;45390;-74
2023/08/27 16:20:20;;;;;;;;;1.00;1.00;;;;;;;;4999120;28;45212;-73
2023/08/27 16:22:45;;;;;;;;;2.33;1.00;;;;;;;;4989074;28;46475;-73
2023/08/27 16:25:11;;;;;;;;;1.33;1.33;;;;;;;;4999411;28;45209;-73
2023/08/27 16:27:36;;;;;;;;;1.67;1.67;;;;;;;;4994922;28;45578;-73
2023/08/27 16:30:02;;;;;;;;;1.00;1.00;;;;;;;;4998882;28;45251;-74
2023/08/27 16:32:27;;;;;;;;;1.67;1.67;;;;;;;;4990503;28;45535;-73
2023/08/27 16:34:52;;;;;;;;;2.00;1.00;;;;;;;;4998936;28;45317;-73
2023/08/27 16:37:17;;;;;;;;;1.00;1.00;;;;;;;;4996949;28;45545;-74
2023/08/27 16:39:44;;;;;;;;;1.33;1.33;;;;;;;;4990039;28;45475;-73
2023/08/27 16:42:09;;;;;;;;;2.00;2.00;;;;;;;;4989515;28;45447;-74
2023/08/27 16:44:34;;;;;;;;;0.33;0.33;;;;;;;;4989250;28;45355;-74
2023/08/27 16:46:59;;;;;;;;;2.00;2.00;;;;;;;;4992817;28;45558;-74
2023/08/27 16:49:24;;;;;;;;;3.00;1.00;;;;;;;;4986599;28;45695;-74
2023/08/27 16:51:50;;;;;;;;;2.00;2.00;;;;;;;;4989105;28;45450;-75
2023/08/27 16:54:16;;;;;;;;;2.67;1.67;;;;;;;;4993274;28;45368;-74
2023/08/27 16:56:41;;;;;;;;;2.67;2.67;;;;;;;;4993876;28;45395;-74
2023/08/27 16:59:06;;;;;;;;;1.33;1.00;;;;;;;;5000459;28;46511;-74
2023/08/27 17:01:31;;;;;;;;;1.00;0.67;;;;;;;;4997345;28;46414;-74
2023/08/27 17:04:00;;;;;;;;;1.33;1.33;;;;;;;;4997511;28;45393;-73
2023/08/27 17:06:27;;;;;;;;;1.00;1.00;;;;;;;;4998930;28;45232;-74
2023/08/27 17:08:52;;;;;;;;;1.33;1.00;;;;;;;;4999508;28;45140;-74
2023/08/27 17:11:17;;;;;;;;;1.33;1.33;;;;;;;;4999166;28;45379;-73
2023/08/27 17:13:42;;;;;;;;;1.00;1.00;;;;;;;;4992150;28;45328;-73
2023/08/27 17:16:08;;;;;;;;;1.00;1.00;;;;;;;;4999008;28;45636;-74
2023/08/27 17:18:33;;;;;;;;;0.67;0.00;;;;;;;;5000410;28;45934;-74
2023/08/27 17:20:58;;;;;;;;;1.00;1.00;;;;;;;;4998256;28;48232;-75
2023/08/27 17:23:24;;;;;;;;;1.00;1.00;;;;;;;;4994189;28;45469;-74
2023/08/27 17:25:49;;;;;;;;;1.00;1.00;;;;;;;;5000828;28;45373;-75
2023/08/27 17:28:14;;;;;;;;;0.00;0.00;;;;;;;;4993803;28;45298;-74
2023/08/27 17:30:39;;;;;;;;;1.00;0.67;;;;;;;;5001468;28;45346;-74
2023/08/27 17:33:05;;;;;;;;;0.00;0.00;;;;;;;;4994440;28;45356;-75
2023/08/27 17:35:30;;;;;;;;;1.00;1.00;;;;;;;;5001651;28;45267;-74
2023/08/27 17:37:55;;;;;;;;;0.67;0.67;;;;;;;;4993802;28;45336;-74
2023/08/27 17:40:20;;;;;;;;;1.00;1.00;;;;;;;;5000300;28;47205;-73
2023/08/27 17:42:45;;;;;;;;;0.33;0.33;;;;;;;;4992288;28;45324;-74
2023/08/27 17:45:11;;;;;;;;;0.67;0.67;;;;;;;;4994808;28;45342;-74
2023/08/27 17:47:36;;;;;;;;;0.67;0.67;;;;;;;;4993033;28;45438;-78
2023/08/27 17:50:03;;;;;;;;;0.67;0.67;;;;;;;;4995081;28;46038;-73
2023/08/27 17:52:31;;;;;;;;;2.00;2.00;;;;;;;;4996755;28;45243;-76
2023/08/27 17:54:57;;;;;;;;;2.67;1.33;;;;;;;;4996258;28;45469;-76
2023/08/27 17:57:22;;;;;;;;;1.67;1.00;;;;;;;;4995460;28;45565;-77
2023/08/27 17:59:47;;;;;;;;;4.00;2.00;;;;;;;;4997262;28;46430;-78
2023/08/27 18:02:12;;;;;;;;;1.67;1.67;;;;;;;;4996633;28;45297;-76
2023/08/27 18:04:37;;;;;;;;;1.00;1.00;;;;;;;;4998719;28;45305;-76
2023/08/27 18:07:03;;;;;;;;;2.67;2.67;;;;;;;;4997248;28;45807;-76
2023/08/27 18:09:28;;;;;;;;;1.67;1.33;;;;;;;;4998555;28;45362;-78
2023/08/27 18:11:53;;;;;;;;;3.00;2.00;;;;;;;;4998172;28;45251;-77
2023/08/27 18:14:19;;;;;;;;;1.33;1.33;;;;;;;;5000028;28;45488;-75
2023/08/27 18:16:44;;;;;;;;;2.33;1.67;;;;;;;;4998357;28;45441;-77
2023/08/27 18:19:09;;;;;;;;;2.33;1.00;;;;;;;;4987499;28;46692;-73
2023/08/27 18:21:35;;;;;;;;;2.00;2.00;;;;;;;;4996862;28;45518;-75
2023/08/27 18:24:00;;;;;;;;;2.00;2.00;;;;;;;;4993463;28;45336;-74
2023/08/27 18:26:25;;;;;;;;;2.00;2.00;;;;;;;;4997656;28;45620;-74
2023/08/27 18:28:51;;;;;;;;;2.00;2.00;;;;;;;;4994013;28;45361;-74
2023/08/27 18:31:16;;;;;;;;;1.67;1.67;;;;;;;;4996660;28;45296;-74
2023/08/27 18:33:41;;;;;;;;;0.67;0.67;;;;;;;;4999665;28;45417;-74
2023/08/27 18:36:06;;;;;;;;;0.67;0.67;;;;;;;;4998533;28;45529;-76
2023/08/27 18:38:32;;;;;;;;;2.33;1.00;;;;;;;;4995611;28;47271;-77
2023/08/27 18:40:57;;;;;;;;;3.33;2.67;;;;;;;;4995994;28;45252;-78
2023/08/27 18:43:22;;;;;;;;;4.00;3.00;;;;;;;;4988590;28;45278;-79
2023/08/27 18:45:47;;;;;;;;;1.67;1.67;;;;;;;;4997082;28;45506;-78
2023/08/27 18:48:12;;;;;;;;;3.33;3.33;;;;;;;;4990599;28;45268;-77
2023/08/27 18:50:39;;;;;;;;;5.00;4.00;;;;;;;;4997637;28;45242;-77
2023/08/27 18:53:05;;;;;;;;;5.33;2.33;;;;;;;;4994398;28;45417;-76
2023/08/27 18:55:30;;;;;;;;;3.00;3.00;;;;;;;;4997717;28;45475;-77
2023/08/27 18:57:55;;;;;;;;;3.67;3.67;;;;;;;;4997110;28;47060;-78
2023/08/27 19:00:20;;;;;;;;;1.67;1.67;;;;;;;;4997408;28;45272;-77
2023/08/27 19:02:46;;;;;;;;;2.00;1.33;;;;;;;;4996148;28;45391;-77
2023/08/27 19:05:11;;;;;;;;;2.67;2.67;;;;;;;;4997079;28;45287;-78
2023/08/27 19:07:36;;;;;;;;;1.67;1.67;;;;;;;;4996178;28;47859;-77
2023/08/27 19:10:02;;;;;;;;;2.00;2.00;;;;;;;;4999050;28;45391;-77
2023/08/27 19:12:27;;;;;;;;;3.67;2.67;;;;;;;;4998066;28;45778;-74
2023/08/27 19:14:52;;;;;;;;;3.33;3.33;;;;;;;;4998962;28;45212;-75
2023/08/27 19:17:17;;;;;;;;;2.00;2.00;;;;;;;;4991811;28;46987;-77
2023/08/27 19:19:43;;;;;;;;;3.33;2.33;;;;;;;;4997670;28;45308;-76
2023/08/27 19:22:08;;;;;;;;;2.67;2.00;;;;;;;;4994350;28;45410;-76
2023/08/27 19:24:33;;;;;;;;;1.00;1.00;;;;;;;;4996330;28;45338;-76
2023/08/27 19:26:58;;;;;;;;;4.00;2.00;;;;;;;;4994990;28;45485;-75
2023/08/27 19:29:24;;;;;;;;;2.00;2.00;;;;;;;;4996076;28;45241;-75
2023/08/27 19:31:49;;;;;;;;;3.67;2.00;;;;;;;;4992916;28;45502;-75
2023/08/27 19:34:14;;;;;;;;;1.67;1.67;;;;;;;;4994069;28;46446;-74
2023/08/27 19:36:40;;;;;;;;;6.00;2.33;;;;;;;;4993367;28;45593;-76
2023/08/27 19:39:05;;;;;;;;;2.67;1.67;;;;;;;;4987718;28;45321;-76
2023/08/27 19:41:30;;;;;;;;;2.67;2.67;;;;;;;;4993305;28;45577;-75
2023/08/27 19:43:55;;;;;;;;;2.00;2.00;;;;;;;;4997989;28;45475;-75
2023/08/27 19:46:21;;;;;;;;;2.67;1.67;;;;;;;;4995668;28;46486;-75
2023/08/27 19:48:46;;;;;;;;;2.00;1.67;;;;;;;;4992931;28;45351;-77
2023/08/27 19:51:11;;;;;;;;;3.00;2.00;;;;;;;;4997511;28;45513;-77
2023/08/27 19:53:36;;;;;;;;;2.67;2.67;;;;;;;;4989361;28;45494;-77
2023/08/27 19:56:02;;;;;;;;;1.67;1.33;;;;;;;;4997885;28;45489;-77
2023/08/27 19:58:27;;;;;;;;;2.00;2.00;;;;;;;;4993106;28;45262;-74
2023/08/27 20:00:52;;;;;;;;;2.00;2.00;;;;;;;;4998183;28;45213;-75
2023/08/27 20:03:18;;;;;;;;;1.67;1.67;;;;;;;;4997018;28;45587;-75
